createdAt,value
2022-10-18T00:00:57.530Z,15.5
2022-10-18T00:02:58.655Z,15.5
2022-10-18T00:04:59.792Z,15.5
2022-10-18T00:07:00.912Z,15.5
2022-10-18T00:09:02.052Z,15.6
2022-10-18T00:11:06.348Z,15.6
2022-10-18T00:13:07.483Z,15.6
2022-10-18T00:16:10.742Z,15.6
2022-10-18T00:18:11.885Z,15.5
2022-10-18T00:20:13.013Z,15.5
2022-10-18T00:22:14.145Z,15.5
2022-10-18T00:24:18.424Z,15.5
2022-10-18T00:26:19.572Z,15.5
2022-10-18T00:28:20.703Z,15.5
2022-10-18T00:30:21.841Z,15.5
2022-10-18T00:32:22.945Z,15.4
2022-10-18T00:34:24.107Z,15.5
2022-10-18T00:36:25.229Z,15.5
2022-10-18T00:38:29.544Z,15.5
2022-10-18T00:40:30.679Z,15.4
2022-10-18T00:42:32.215Z,15.4
2022-10-18T00:44:32.930Z,15.4
2022-10-18T00:46:34.056Z,15.4
2022-10-18T00:48:35.182Z,15.4
2022-10-18T00:50:36.332Z,15.4
2022-10-18T00:52:40.619Z,15.4
2022-10-18T00:54:41.767Z,15.3
2022-10-18T00:56:42.923Z,15.4
2022-10-18T00:58:44.035Z,15.3
2022-10-18T01:10:53.991Z,15.2
2022-10-18T01:11:56.131Z,15.2
2022-10-18T01:13:57.270Z,15.2
2022-10-18T01:15:58.410Z,15.2
2022-10-18T01:17:59.519Z,15.2
2022-10-18T01:20:03.842Z,15.2
2022-10-18T01:22:04.954Z,15.1
2022-10-18T01:24:06.093Z,15.1
2022-10-18T01:26:07.216Z,15.1
2022-10-18T01:28:08.330Z,15.1
2022-10-18T01:30:09.490Z,15.1
2022-10-18T01:32:10.612Z,15.1
2022-10-18T01:34:14.921Z,15
2022-10-18T01:36:16.039Z,15
2022-10-18T01:38:17.205Z,15
2022-10-18T01:40:18.325Z,15
2022-10-18T01:42:19.454Z,15
2022-10-18T01:44:20.593Z,15
2022-10-18T01:46:21.734Z,14.9
2022-10-18T01:48:26.040Z,14.9
2022-10-18T01:50:27.144Z,14.9
2022-10-18T01:52:28.531Z,14.9
2022-10-18T01:58:31.682Z,14.9
2022-10-18T02:00:32.841Z,14.9
2022-10-18T02:02:37.166Z,14.8
2022-10-18T02:04:38.267Z,14.8
2022-10-18T02:06:39.405Z,14.8
2022-10-18T02:07:41.538Z,14.8
2022-10-18T02:11:43.764Z,14.8
2022-10-18T02:13:44.883Z,14.8
2022-10-18T02:17:50.309Z,14.8
2022-10-18T02:19:51.463Z,14.8
2022-10-18T02:21:52.623Z,14.8
2022-10-18T02:23:53.740Z,14.8
2022-10-18T02:25:54.884Z,14.8
2022-10-18T02:27:56.039Z,14.8
2022-10-18T02:30:00.406Z,14.8
2022-10-18T02:32:01.518Z,14.8
2022-10-18T02:34:02.638Z,14.8
2022-10-18T02:36:03.776Z,14.7
2022-10-18T02:38:04.886Z,14.7
2022-10-18T02:40:06.048Z,14.7
2022-10-18T02:42:07.187Z,14.7
2022-10-18T02:44:11.520Z,14.7
2022-10-18T02:46:12.685Z,14.7
2022-10-18T02:48:13.826Z,14.7
2022-10-18T02:50:14.991Z,14.6
2022-10-18T02:52:16.109Z,14.6
2022-10-18T02:54:17.239Z,14.6
2022-10-18T02:56:18.388Z,14.6
2022-10-18T02:58:22.686Z,14.5
2022-10-18T03:00:23.830Z,14.5
2022-10-18T03:02:24.978Z,14.5
2022-10-18T03:04:52.406Z,14.5
2022-10-18T03:06:53.535Z,14.5
2022-10-18T03:08:54.689Z,14.5
2022-10-18T03:10:58.974Z,14.5
2022-10-18T03:13:00.108Z,14.5
2022-10-18T03:15:01.282Z,14.5
2022-10-18T03:17:02.409Z,14.5
2022-10-18T03:19:03.548Z,14.4
2022-10-18T03:21:04.697Z,14.5
2022-10-18T03:27:11.259Z,14.4
2022-10-18T03:29:12.396Z,14.3
2022-10-18T03:31:13.570Z,14.3
2022-10-18T03:33:14.689Z,14.4
2022-10-18T03:35:15.859Z,14.3
2022-10-18T03:37:17.132Z,14.3
2022-10-18T03:39:21.304Z,14.3
2022-10-18T03:41:22.495Z,14.3
2022-10-18T03:43:23.629Z,14.3
2022-10-18T03:45:28.890Z,14.3
2022-10-18T03:47:25.922Z,14.3
2022-10-18T03:49:27.230Z,14.3
2022-10-18T03:51:28.305Z,14.3
2022-10-18T03:53:32.608Z,14.3
2022-10-18T03:55:33.748Z,14.3
2022-10-18T03:57:34.888Z,14.3
2022-10-18T04:18:51.681Z,14.1
2022-10-18T04:29:00.759Z,14.1
2022-10-18T04:31:01.842Z,14
2022-10-18T04:33:02.984Z,14
2022-10-18T04:35:08.842Z,13.9
2022-10-18T04:37:09.941Z,13.9
2022-10-18T04:39:11.048Z,13.9
2022-10-18T04:41:12.223Z,13.9
2022-10-18T04:43:13.359Z,13.9
2022-10-18T04:45:14.482Z,13.8
2022-10-18T04:47:15.613Z,13.8
2022-10-18T04:49:19.948Z,13.8
2022-10-18T04:51:21.100Z,13.8
2022-10-18T04:53:22.236Z,13.8
2022-10-18T04:54:26.553Z,13.7
2022-10-18T04:56:25.570Z,13.7
2022-10-18T04:58:26.719Z,13.7
2022-10-18T05:00:27.839Z,13.7
2022-10-18T05:02:32.329Z,13.6
2022-10-18T05:04:33.433Z,13.6
2022-10-18T05:06:34.682Z,13.6
2022-10-18T05:08:35.817Z,13.5
2022-10-18T05:10:36.961Z,13.5
2022-10-18T05:12:38.095Z,13.5
2022-10-18T05:14:39.241Z,13.4
2022-10-18T05:16:43.571Z,13.4
2022-10-18T05:18:44.809Z,13.3
2022-10-18T05:20:45.954Z,13.3
2022-10-18T05:22:47.126Z,13.3
2022-10-18T05:24:48.350Z,13.3
2022-10-18T05:26:49.605Z,13.3
2022-10-18T05:30:55.273Z,13.2
2022-10-18T05:32:56.524Z,13.2
2022-10-18T05:36:59.042Z,13.1
2022-10-18T05:39:04.034Z,13.1
2022-10-18T05:41:01.544Z,13.1
2022-10-18T05:43:02.795Z,13.1
2022-10-18T05:50:12.119Z,13
2022-10-18T05:52:13.340Z,13
2022-10-18T05:54:14.621Z,13
2022-10-18T05:56:15.883Z,12.9
2022-10-18T05:58:20.422Z,12.9
2022-10-18T06:00:21.691Z,12.9
2022-10-18T06:02:22.985Z,12.9
2022-10-18T06:04:24.162Z,12.9
2022-10-18T06:06:25.430Z,12.9
2022-10-18T06:08:26.690Z,12.9
2022-10-18T06:10:27.938Z,12.8
2022-10-18T06:12:32.475Z,12.8
2022-10-18T06:14:33.758Z,12.8
2022-10-18T06:16:35.002Z,12.8
2022-10-18T06:18:36.227Z,12.9
2022-10-18T06:30:47.034Z,12.7
2022-10-18T06:32:48.282Z,12.7
2022-10-18T06:34:49.534Z,12.7
2022-10-18T06:36:53.816Z,12.7
2022-10-18T06:38:52.047Z,12.7
2022-10-18T06:40:56.570Z,12.7
2022-10-18T06:43:00.475Z,12.6
2022-10-18T06:44:59.089Z,12.7
2022-10-18T06:47:27.398Z,12.8
2022-10-18T06:49:28.656Z,12.8
2022-10-18T06:51:29.936Z,12.8
2022-10-18T06:53:34.463Z,12.8
2022-10-18T06:55:35.708Z,12.8
2022-10-18T06:57:36.944Z,12.9
2022-10-18T06:59:38.205Z,12.8
2022-10-18T07:01:39.585Z,12.9
2022-10-18T07:03:40.711Z,13
2022-10-18T07:05:41.965Z,13
2022-10-18T07:07:46.498Z,13.1
2022-10-18T07:09:47.745Z,13.1
2022-10-18T07:11:49.001Z,13.1
2022-10-18T07:13:50.245Z,13.2
2022-10-18T07:15:51.502Z,13.2
2022-10-18T07:17:52.760Z,13.3
2022-10-18T07:19:54.018Z,13.4
2022-10-18T07:21:58.698Z,13.3
2022-10-18T07:23:59.832Z,13.4
2022-10-18T07:26:01.134Z,13.4
2022-10-18T07:28:02.350Z,13.5
2022-10-18T07:32:04.858Z,13.6
2022-10-18T07:34:06.111Z,13.6
2022-10-18T07:40:13.904Z,13.7
2022-10-18T07:41:16.147Z,13.7
2022-10-18T07:43:17.394Z,13.8
2022-10-18T07:45:18.660Z,13.8
2022-10-18T07:47:19.893Z,13.8
2022-10-18T07:51:25.704Z,13.9
2022-10-18T07:53:26.932Z,14
2022-10-18T07:55:28.197Z,14
2022-10-18T07:57:29.648Z,14.1
2022-10-18T07:59:30.689Z,14.1
2022-10-18T08:01:31.978Z,14.2
2022-10-18T08:07:38.872Z,14.2
2022-10-18T08:11:41.404Z,14.4
2022-10-18T08:17:48.095Z,14.6
2022-10-18T08:19:58.573Z,14.6
2022-10-18T08:21:50.349Z,14.7
2022-10-18T08:23:51.524Z,14.7
2022-10-18T08:25:52.676Z,14.7
2022-10-18T08:27:53.786Z,14.9
2022-10-18T08:29:55.013Z,15
2022-10-18T08:31:59.219Z,15
2022-10-18T08:34:00.394Z,15
2022-10-18T08:36:01.530Z,15.2
2022-10-18T08:41:06.001Z,15.3
2022-10-18T08:45:17.752Z,15.4
2022-10-18T08:47:12.574Z,15.4
2022-10-18T08:49:13.735Z,15.5
2022-10-18T08:51:14.849Z,15.6
2022-10-18T08:53:15.998Z,15.7
2022-10-18T08:55:17.133Z,15.7
2022-10-18T08:57:18.287Z,15.8
2022-10-18T08:59:25.423Z,16.1
2022-10-18T09:01:23.702Z,16.2
2022-10-18T09:03:24.940Z,16.2
2022-10-18T09:05:26.023Z,17.4
2022-10-18T09:09:28.270Z,21.5
2022-10-18T09:11:29.423Z,22.3
2022-10-18T09:13:33.729Z,23.4
2022-10-18T09:15:34.859Z,23.1
2022-10-18T09:17:35.972Z,23.4
2022-10-18T09:21:38.217Z,24.4
2022-10-18T09:23:39.358Z,24.3
2022-10-18T09:25:40.453Z,24.2
2022-10-18T09:27:44.772Z,25.8
2022-10-18T09:31:46.983Z,23.7
2022-10-18T09:32:49.121Z,23.8
2022-10-18T09:34:50.235Z,23.7
2022-10-18T09:36:51.335Z,24.6
2022-10-18T09:44:58.954Z,25.5
2022-10-18T09:47:00.007Z,26.6
2022-10-18T09:49:01.110Z,26.2
2022-10-18T09:51:02.188Z,26.8
2022-10-18T09:53:03.261Z,26.1
2022-10-18T09:55:07.532Z,26.2
2022-10-18T09:57:08.619Z,26.6
2022-10-18T09:59:09.688Z,27
2022-10-18T10:01:10.751Z,26.6
2022-10-18T10:03:11.829Z,27
2022-10-18T10:05:12.997Z,26.7
2022-10-18T10:07:13.936Z,26.4
2022-10-18T10:09:18.198Z,26.7
2022-10-18T10:11:19.299Z,27
2022-10-18T10:13:20.372Z,26.7
2022-10-18T10:15:21.364Z,26.6
2022-10-18T10:17:22.411Z,25.2
2022-10-18T10:19:23.464Z,25.2
2022-10-18T10:21:24.519Z,25.7
2022-10-18T10:23:28.756Z,26.4
2022-10-18T10:25:31.332Z,26.2
2022-10-18T10:27:32.715Z,26.4
2022-10-18T10:30:04.214Z,25.7
2022-10-18T10:32:01.193Z,25.9
2022-10-18T10:34:02.229Z,25.3
2022-10-18T10:36:06.476Z,26.1
2022-10-18T10:38:07.535Z,25.6
2022-10-18T10:40:18.749Z,25.8
2022-10-18T10:42:11.495Z,25.5
2022-10-18T10:44:10.629Z,25.9
2022-10-18T10:46:11.648Z,23.7
2022-10-18T10:48:12.692Z,22.3
2022-10-18T10:50:16.950Z,23.2
2022-10-18T10:52:26.745Z,23.5
2022-10-18T10:54:19.036Z,23.4
2022-10-18T10:56:20.091Z,23.9
2022-10-18T10:58:21.120Z,24.9
2022-10-18T11:00:22.161Z,24.7
2022-10-18T11:02:23.219Z,25.5
2022-10-18T11:04:27.460Z,25.9
2022-10-18T11:06:28.514Z,26.3
2022-10-18T11:08:29.565Z,27.7
2022-10-18T11:10:30.587Z,27.4
2022-10-18T11:12:31.952Z,23
2022-10-18T11:14:32.673Z,20.4
2022-10-18T11:16:33.723Z,19.4
2022-10-18T11:18:37.950Z,19.4
2022-10-18T11:20:38.987Z,19.2
2022-10-18T11:22:40.050Z,18.9
2022-10-18T11:23:42.181Z,18.4
2022-10-18T11:25:43.235Z,18.5
2022-10-18T11:27:44.295Z,18.3
2022-10-18T11:31:49.606Z,18.6
2022-10-18T11:34:08.311Z,18.8
2022-10-18T11:35:51.723Z,19
2022-10-18T11:37:52.798Z,19.1
2022-10-18T11:39:53.861Z,19.2
2022-10-18T11:41:54.954Z,19.3
2022-10-18T11:44:02.327Z,19.3
2022-10-18T11:46:00.279Z,19.2
2022-10-18T11:48:01.361Z,19.2
2022-10-18T11:50:02.451Z,19
2022-10-18T11:52:08.260Z,19.1
2022-10-18T11:56:05.667Z,19.2
2022-10-18T11:58:06.740Z,18.9
2022-10-18T12:00:11.152Z,18.8
2022-10-18T12:02:12.132Z,18.8
2022-10-18T12:04:13.169Z,18.8
2022-10-18T12:06:14.255Z,18.7
2022-10-18T12:08:15.340Z,18.3
2022-10-18T12:10:22.098Z,18.1
2022-10-18T12:12:17.513Z,18.2
2022-10-18T12:14:21.804Z,18.1
2022-10-18T12:16:45.613Z,18.1
2022-10-18T12:18:23.987Z,18.2
2022-10-18T12:19:27.092Z,18.3
2022-10-18T12:21:27.219Z,18.3
2022-10-18T12:23:28.292Z,18.3
2022-10-18T12:25:29.408Z,18.4
2022-10-18T12:27:33.679Z,18.7
2022-10-18T12:29:34.782Z,18.6
2022-10-18T12:31:35.850Z,18.6
2022-10-18T12:33:36.935Z,18.5
2022-10-18T12:35:38.058Z,18.4
2022-10-18T12:37:39.133Z,18.4
2022-10-18T12:39:44.154Z,18.4
2022-10-18T12:41:44.514Z,18.2
2022-10-18T12:49:48.892Z,18.6
2022-10-18T12:51:49.981Z,18.8
2022-10-18T12:53:51.076Z,18.8
2022-10-18T12:55:55.351Z,18.6
2022-10-18T12:57:56.456Z,18.8
2022-10-18T12:59:57.663Z,18.8
2022-10-18T13:01:58.746Z,18.9
2022-10-18T13:03:59.738Z,18.9
2022-10-18T13:06:05.606Z,18.9
2022-10-18T13:08:01.946Z,18.6
2022-10-18T13:10:06.258Z,18.9
2022-10-18T13:12:07.293Z,19
2022-10-18T13:14:08.402Z,19
2022-10-18T13:15:24.858Z,19.1
2022-10-18T13:17:11.609Z,19
2022-10-18T13:19:12.705Z,18.4
2022-10-18T13:21:13.794Z,18.3
2022-10-18T13:23:18.112Z,18.2
2022-10-18T13:25:19.193Z,18.2
2022-10-18T13:27:36.003Z,18.1
2022-10-18T13:29:21.388Z,18
2022-10-18T13:31:22.494Z,18
2022-10-18T13:33:23.604Z,18
2022-10-18T13:35:24.683Z,17.9
2022-10-18T13:37:28.959Z,17.9
2022-10-18T13:39:30.061Z,17.9
2022-10-18T13:41:34.349Z,17.8
2022-10-18T13:43:32.289Z,17.8
2022-10-18T13:45:33.372Z,17.7
2022-10-18T13:49:35.596Z,17.7
2022-10-18T13:51:39.875Z,17.7
2022-10-18T13:53:40.969Z,17.7
2022-10-18T13:55:42.089Z,17.7
2022-10-18T13:57:43.179Z,17.7
2022-10-18T13:59:44.283Z,17.7
2022-10-18T14:01:47.439Z,17.4
2022-10-18T14:03:57.090Z,17.5
2022-10-18T14:05:50.808Z,17.4
2022-10-18T14:07:51.926Z,17.4
2022-10-18T14:09:55.628Z,17.5
2022-10-18T14:12:21.026Z,17.4
2022-10-18T14:14:22.148Z,17.4
2022-10-18T14:16:23.253Z,17.3
2022-10-18T14:18:28.969Z,17.3
2022-10-18T14:20:29.755Z,17.3
2022-10-18T14:22:30.027Z,17.3
2022-10-18T14:24:30.891Z,17.2
2022-10-18T14:26:32.044Z,17.1
2022-10-18T14:28:55.068Z,17.1
2022-10-18T14:30:34.228Z,17
2022-10-18T14:32:38.548Z,17
2022-10-18T14:34:39.670Z,17
2022-10-18T14:36:40.787Z,16.9
2022-10-18T14:38:41.899Z,16.8
2022-10-18T14:40:43.018Z,16.8
2022-10-18T14:42:44.161Z,16.8
2022-10-18T14:44:45.260Z,16.8
2022-10-18T14:46:49.591Z,16.7
2022-10-18T14:48:50.707Z,16.7
2022-10-18T14:50:51.808Z,16.7
2022-10-18T15:01:00.640Z,16.4
2022-10-18T15:03:01.765Z,16.4
2022-10-18T15:05:02.903Z,16.4
2022-10-18T15:08:06.286Z,16.3
2022-10-18T15:12:08.395Z,16.2
2022-10-18T15:14:12.694Z,16.2
2022-10-18T15:24:18.329Z,16.1
2022-10-18T15:26:19.521Z,16.1
2022-10-18T15:30:24.900Z,16
2022-10-18T15:32:26.052Z,16
2022-10-18T15:34:27.161Z,16
2022-10-18T15:36:28.292Z,16
2022-10-18T15:38:29.423Z,16
2022-10-18T15:40:30.525Z,16
2022-10-18T15:42:34.855Z,15.9
2022-10-18T15:44:35.973Z,15.9
2022-10-18T15:46:37.102Z,15.8
2022-10-18T15:48:38.252Z,15.8
2022-10-18T15:50:39.367Z,15.8
2022-10-18T15:52:40.500Z,15.7
2022-10-18T15:54:41.710Z,15.7
2022-10-18T15:56:45.922Z,15.5
2022-10-18T15:58:47.056Z,15.5
2022-10-18T16:00:48.211Z,15.4
2022-10-18T16:01:50.379Z,15.3
2022-10-18T16:07:53.758Z,15.1
2022-10-18T16:09:58.062Z,15.1
2022-10-18T16:11:59.187Z,15
2022-10-18T16:14:01.867Z,15
2022-10-18T16:16:03.017Z,14.9
2022-10-18T16:18:04.108Z,14.8
2022-10-18T16:20:05.242Z,14.8
2022-10-18T16:22:06.995Z,14.7
2022-10-18T16:24:10.696Z,14.6
2022-10-18T16:26:11.892Z,14.6
2022-10-18T16:28:12.995Z,14.5
2022-10-18T16:30:14.134Z,14.5
2022-10-18T16:32:15.309Z,14.4
2022-10-18T16:34:16.442Z,14.4
2022-10-18T16:36:17.595Z,14.3
2022-10-18T16:38:21.935Z,14.2
2022-10-18T16:40:23.069Z,14.2
2022-10-18T16:42:24.214Z,14.1
2022-10-18T16:44:25.359Z,14.1
2022-10-18T16:46:26.471Z,14
2022-10-18T16:48:27.627Z,14
2022-10-18T16:50:31.914Z,13.9
2022-10-18T16:52:33.315Z,13.8
2022-10-18T16:54:34.227Z,13.8
2022-10-18T16:56:35.483Z,13.8
2022-10-18T16:57:37.723Z,13.8
2022-10-18T16:59:38.886Z,13.8
2022-10-18T17:01:40.183Z,13.7
2022-10-18T17:03:41.308Z,13.6
2022-10-18T17:09:47.904Z,13.5
2022-10-18T17:11:49.062Z,13.4
2022-10-18T17:13:50.246Z,13.4
2022-10-18T17:15:51.384Z,13.4
2022-10-18T17:17:52.539Z,13.4
2022-10-18T17:19:56.882Z,13.2
2022-10-18T17:22:02.434Z,13.2
2022-10-18T17:23:59.189Z,13.2
2022-10-18T17:26:07.295Z,13.1
2022-10-18T17:28:01.486Z,13
2022-10-18T17:34:08.313Z,12.8
2022-10-18T17:36:09.569Z,12.8
2022-10-18T17:38:10.838Z,12.8
2022-10-18T17:40:12.063Z,12.7
2022-10-18T17:42:13.318Z,12.7
2022-10-18T17:44:14.604Z,12.6
2022-10-18T17:46:15.861Z,12.6
2022-10-18T17:48:20.358Z,12.6
2022-10-18T17:50:21.631Z,12.5
2022-10-18T17:52:22.899Z,12.5
2022-10-18T17:54:51.217Z,12.4
2022-10-18T17:56:53.920Z,12.4
2022-10-18T17:58:53.639Z,12.4
2022-10-18T18:00:58.180Z,12.3
2022-10-18T18:02:59.473Z,12.3
2022-10-18T18:05:00.692Z,12.3
2022-10-18T18:07:01.991Z,12.3
2022-10-18T18:09:03.245Z,12.2
2022-10-18T18:11:04.516Z,12.1
2022-10-18T18:13:05.765Z,12.1
2022-10-18T18:15:10.284Z,12
2022-10-18T18:17:11.570Z,12
2022-10-18T18:19:12.831Z,12
2022-10-18T18:21:14.046Z,11.9
2022-10-18T18:23:15.288Z,11.8
2022-10-18T18:25:16.563Z,11.8
2022-10-18T18:27:17.837Z,11.8
2022-10-18T18:29:22.385Z,11.8
2022-10-18T18:31:23.605Z,11.8
2022-10-18T18:33:24.862Z,11.7
2022-10-18T18:35:26.142Z,11.7
2022-10-18T18:39:28.613Z,11.6
2022-10-18T18:41:29.878Z,11.6
2022-10-18T18:43:34.391Z,11.6
2022-10-18T18:47:36.874Z,11.6
2022-10-18T18:48:39.181Z,11.6
2022-10-18T18:50:40.419Z,11.5
2022-10-18T18:52:41.680Z,11.5
2022-10-18T18:54:42.915Z,11.5
2022-10-18T18:56:47.443Z,11.5
2022-10-18T18:58:48.689Z,11.5
2022-10-18T19:00:50.865Z,11.5
2022-10-18T19:02:52.140Z,11.5
2022-10-18T19:04:53.396Z,11.4
2022-10-18T19:06:54.626Z,11.4
2022-10-18T19:08:55.873Z,11.4
2022-10-18T19:11:00.398Z,11.3
2022-10-18T19:13:01.635Z,11.3
2022-10-18T19:15:02.983Z,11.3
2022-10-18T19:17:04.142Z,11.3
2022-10-18T19:19:05.408Z,11.3
2022-10-18T19:21:06.661Z,11.3
2022-10-18T19:23:07.915Z,11.2
2022-10-18T19:25:12.451Z,11.2
2022-10-18T19:27:13.710Z,11.2
2022-10-18T19:29:14.964Z,11.2
2022-10-18T19:31:16.223Z,11.2
2022-10-18T19:33:17.454Z,11.2
2022-10-18T19:35:18.702Z,11.2
2022-10-18T19:37:19.975Z,11.1
2022-10-18T19:39:24.625Z,11
2022-10-18T19:43:27.021Z,10.9
2022-10-18T19:44:29.291Z,11
2022-10-18T19:46:30.526Z,10.9
2022-10-18T19:48:31.771Z,10.9
2022-10-18T19:50:33.017Z,10.9
2022-10-18T19:52:37.532Z,10.9
2022-10-18T19:54:38.791Z,10.9
2022-10-18T19:56:40.063Z,10.9
2022-10-18T19:58:41.299Z,10.9
2022-10-18T20:00:42.551Z,10.8
2022-10-18T20:02:43.800Z,10.8
2022-10-18T20:04:45.051Z,10.8
2022-10-18T20:06:49.568Z,10.8
2022-10-18T20:08:50.801Z,10.8
2022-10-18T20:10:52.056Z,10.8
2022-10-18T20:12:53.351Z,10.8
2022-10-18T20:14:54.592Z,10.8
2022-10-18T20:16:55.858Z,10.8
2022-10-18T20:18:57.077Z,10.7
2022-10-18T20:23:02.837Z,10.7
2022-10-18T20:25:04.130Z,10.7
2022-10-18T20:27:05.371Z,10.6
2022-10-18T20:29:06.697Z,10.6
2022-10-18T20:31:07.903Z,10.6
2022-10-18T20:33:09.147Z,10.5
2022-10-18T20:35:13.655Z,10.5
2022-10-18T20:37:14.911Z,10.5
2022-10-18T20:39:16.167Z,10.4
2022-10-18T20:40:18.422Z,10.4
2022-10-18T20:42:19.673Z,10.4
2022-10-18T20:44:20.934Z,10.4
2022-10-18T20:48:26.678Z,10.3
2022-10-18T20:50:27.937Z,10.3
2022-10-18T20:52:29.200Z,10.3
2022-10-18T20:54:30.446Z,10.2
2022-10-18T20:56:31.699Z,10.1
2022-10-18T20:58:32.945Z,10.1
2022-10-18T21:00:34.190Z,10
2022-10-18T21:02:38.688Z,10
2022-10-18T21:04:41.539Z,9.9
2022-10-18T21:06:41.223Z,9.9
2022-10-18T21:08:42.506Z,9.8
2022-10-18T21:10:43.758Z,9.8
2022-10-18T21:12:45.008Z,9.8
2022-10-18T21:14:46.274Z,9.8
2022-10-18T21:16:50.767Z,9.8
2022-10-18T21:18:52.028Z,9.7
2022-10-18T21:22:54.542Z,9.7
2022-10-18T21:24:55.781Z,9.7
2022-10-18T21:26:57.067Z,9.6
2022-10-18T21:28:58.373Z,9.7
2022-10-18T21:31:02.820Z,9.7
2022-10-18T21:33:04.087Z,9.7
2022-10-18T21:35:05.336Z,9.7
2022-10-18T21:37:33.776Z,9.7
2022-10-18T21:39:34.987Z,9.6
2022-10-18T21:41:36.235Z,9.6
2022-10-18T21:43:40.780Z,9.5
2022-10-18T21:45:41.991Z,9.5
2022-10-18T21:47:43.238Z,9.5
2022-10-18T21:49:44.524Z,9.4
2022-10-18T21:51:45.767Z,9.4
2022-10-18T21:53:47.039Z,9.4
2022-10-18T21:55:48.272Z,9.4
2022-10-18T21:57:52.771Z,9.5
2022-10-18T21:59:54.028Z,9.5
2022-10-18T22:01:55.261Z,9.5
2022-10-18T22:03:58.058Z,9.4
2022-10-18T22:05:59.266Z,9.4
2022-10-18T22:08:00.502Z,9.4
2022-10-18T22:10:01.840Z,9.4
2022-10-18T22:12:08.303Z,9.3
2022-10-18T22:14:07.546Z,9.3
2022-10-18T22:16:08.798Z,9.3
2022-10-18T22:18:10.102Z,9.3
2022-10-18T22:20:11.322Z,9.3
2022-10-18T22:22:12.539Z,9.3
2022-10-18T22:24:13.804Z,9.3
2022-10-18T22:26:18.288Z,9.3
2022-10-18T22:28:19.541Z,9.3
2022-10-18T22:30:20.812Z,9.2
2022-10-18T22:31:23.076Z,9.2
2022-10-18T22:33:24.362Z,9.2
2022-10-18T22:35:25.567Z,9.2
2022-10-18T22:37:26.814Z,9.2
2022-10-18T22:39:31.328Z,9.2
2022-10-18T22:41:32.598Z,9.2
2022-10-18T22:43:33.963Z,9.2
2022-10-18T22:45:35.079Z,9.2
2022-10-18T22:47:36.818Z,9.2
2022-10-18T22:49:37.557Z,9.2
2022-10-18T22:51:38.880Z,9.2
2022-10-18T22:53:43.335Z,9.1
2022-10-18T22:55:44.570Z,9.1
2022-10-18T22:57:45.841Z,9.1
2022-10-18T22:59:47.096Z,9.1
2022-10-18T23:01:48.390Z,9
2022-10-18T23:03:49.792Z,9
2022-10-18T23:05:50.905Z,8.9
2022-10-18T23:07:55.389Z,8.9
2022-10-18T23:09:56.656Z,8.9
2022-10-18T23:11:57.900Z,8.7
2022-10-18T23:13:59.156Z,8.7
2022-10-18T23:16:04.245Z,8.6
2022-10-18T23:18:01.611Z,8.5
2022-10-18T23:20:02.840Z,8.5
2022-10-18T23:22:07.375Z,8.4
2022-10-18T23:24:08.652Z,8.4
2022-10-18T23:26:09.891Z,8.3
2022-10-18T23:27:12.127Z,8.3
2022-10-18T23:29:13.450Z,8.3
2022-10-18T23:31:14.626Z,8.3
2022-10-18T23:33:15.843Z,8.3
2022-10-18T23:35:20.340Z,8.3
2022-10-18T23:37:21.603Z,8.3
2022-10-18T23:39:22.840Z,8.3
2022-10-18T23:41:24.084Z,8.3
2022-10-18T23:45:26.581Z,8.3
2022-10-18T23:47:27.809Z,8.3
2022-10-18T23:49:32.313Z,8.3
2022-10-18T23:51:33.547Z,8.3
2022-10-18T23:53:34.797Z,8.2
2022-10-18T23:55:36.013Z,8.2
2022-10-18T23:57:37.249Z,8.2
2022-10-18T23:59:38.483Z,8.3
